Time;durP1;ratioP1;P1;durP2;ratioP2;P2;SDS_P1;SDS_P2;PMS_P1;PMS_P2;Temp;Humidity;BMP_temperature;BMP_pressure;BME280_temperature;BME280_humidity;BME280_pressure;Samples;Min_cycle;Max_cycle;Signal;HPM_P1;HPM_P2
2022/11/25 00:13:23;;;;;;;30.80;28.03;;;4.10;99.90;;;;;;6032997;23;20396;-74
2022/11/25 00:15:50;;;;;;;31.10;28.23;;;4.10;99.90;;;;;;4983672;28;20911;-73
2022/11/25 00:18:16;;;;;;;30.47;27.70;;;4.00;99.90;;;;;;4990145;28;20786;-73
2022/11/25 00:20:43;;;;;;;29.33;26.23;;;4.00;99.90;;;;;;4990174;28;20814;-73
2022/11/25 00:23:10;;;;;;;28.87;26.13;;;3.90;99.90;;;;;;4986835;28;20933;-73
2022/11/25 00:25:36;;;;;;;30.10;27.03;;;3.90;99.90;;;;;;4970976;28;20451;-74
2022/11/25 00:28:03;;;;;;;29.27;26.47;;;3.80;99.90;;;;;;4970757;28;20457;-73
2022/11/25 00:30:31;;;;;;;28.50;26.07;;;3.80;99.90;;;;;;4970684;28;20452;-74
2022/11/25 00:32:58;;;;;;;30.13;26.93;;;3.80;99.90;;;;;;4972538;28;20467;-73
2022/11/25 00:35:25;;;;;;;31.17;28.00;;;3.80;99.90;;;;;;4974725;28;20454;-73
2022/11/25 00:37:52;;;;;;;32.83;29.07;;;3.80;99.90;;;;;;4974865;28;20448;-73
2022/11/25 00:40:19;;;;;;;29.70;27.10;;;3.90;99.90;;;;;;4974691;28;20452;-73
2022/11/25 00:45:31;;;;;;;28.60;26.20;;;3.80;99.90;;;;;;4974494;28;20659;-74
2022/11/25 00:47:57;;;;;;;28.43;25.63;;;3.80;99.90;;;;;;4974521;28;20464;-74
2022/11/25 00:50:24;;;;;;;30.50;27.20;;;3.80;99.90;;;;;;4974936;28;20454;-74
2022/11/25 00:52:51;;;;;;;29.97;26.87;;;3.80;99.90;;;;;;4974611;28;20440;-74
2022/11/25 00:55:17;;;;;;;29.90;26.83;;;3.80;99.90;;;;;;4974280;28;20453;-74
2022/11/25 00:57:44;;;;;;;27.10;25.07;;;3.80;99.90;;;;;;4974469;28;20454;-74
2022/11/25 01:00:12;;;;;;;33.43;27.70;;;3.80;99.90;;;;;;4974377;28;20455;-74
2022/11/25 01:02:40;;;;;;;34.67;26.40;;;3.80;99.90;;;;;;4974752;28;20474;-74
2022/11/25 01:05:08;;;;;;;28.47;25.90;;;3.90;99.90;;;;;;4974502;28;20498;-73
2022/11/25 01:07:34;;;;;;;29.20;26.27;;;3.90;99.90;;;;;;4974413;28;20470;-74
2022/11/25 01:10:01;;;;;;;31.93;28.97;;;3.90;99.90;;;;;;4974091;28;20903;-74
2022/11/25 01:12:28;;;;;;;29.80;26.70;;;3.90;99.90;;;;;;4974016;28;20479;-74
2022/11/25 01:14:55;;;;;;;28.83;25.93;;;3.90;99.90;;;;;;4974147;28;21079;-73
2022/11/25 01:17:21;;;;;;;29.83;27.13;;;3.90;99.90;;;;;;4974059;28;20466;-74
2022/11/25 01:19:49;;;;;;;29.93;26.77;;;3.90;99.90;;;;;;4974085;28;20476;-73
2022/11/25 01:22:16;;;;;;;25.23;23.33;;;3.80;99.90;;;;;;4974287;28;20461;-74
2022/11/25 01:24:43;;;;;;;31.00;26.40;;;3.80;99.90;;;;;;4975616;28;21024;-74
2022/11/25 01:27:09;;;;;;;28.93;26.53;;;3.80;99.90;;;;;;4976050;28;20453;-73
2022/11/25 01:29:36;;;;;;;30.17;27.37;;;3.80;99.90;;;;;;4975648;28;20461;-73
2022/11/25 01:32:03;;;;;;;30.80;27.60;;;3.70;99.90;;;;;;4975604;28;20781;-74
2022/11/25 01:34:33;;;;;;;30.67;27.13;;;3.70;99.90;;;;;;4975163;28;20444;-74
2022/11/25 01:37:01;;;;;;;28.37;25.50;;;3.70;99.90;;;;;;4974187;28;20630;-73
2022/11/25 01:39:28;;;;;;;29.07;25.97;;;3.70;99.90;;;;;;4973520;28;20488;-74
2022/11/25 01:41:55;;;;;;;28.37;26.17;;;3.70;99.90;;;;;;4973558;28;20980;-75
2022/11/25 01:44:24;;;;;;;27.10;24.70;;;3.70;99.90;;;;;;4972358;28;21001;-74
2022/11/25 01:47:00;;;;;;;27.97;25.37;;;3.70;99.90;;;;;;4973805;28;20813;-75
2022/11/25 01:49:33;;;;;;;24.20;22.03;;;3.70;99.90;;;;;;4973351;28;20450;-73
2022/11/25 01:52:06;;;;;;;26.67;24.07;;;3.60;99.90;;;;;;4973230;28;20732;-74
2022/11/25 01:54:38;;;;;;;25.93;23.77;;;3.70;99.90;;;;;;4973309;28;20538;-73
2022/11/25 01:57:10;;;;;;;25.97;23.90;;;3.60;99.90;;;;;;4973078;28;20538;-73
2022/11/25 01:59:40;;;;;;;27.00;24.70;;;3.60;99.90;;;;;;4973481;28;20456;-74
2022/11/25 02:02:08;;;;;;;26.90;24.50;;;3.60;99.90;;;;;;4973574;28;20471;-74
2022/11/25 02:04:38;;;;;;;24.03;22.33;;;3.60;99.90;;;;;;4972947;28;20488;-73
2022/11/25 02:07:10;;;;;;;24.47;22.47;;;3.60;99.90;;;;;;4972897;28;20494;-73
2022/11/25 02:09:41;;;;;;;25.63;23.70;;;3.60;99.90;;;;;;4973468;28;20450;-74
2022/11/25 02:12:09;;;;;;;25.83;23.70;;;3.60;99.90;;;;;;4973305;28;20536;-74
2022/11/25 02:14:35;;;;;;;28.27;25.30;;;3.60;99.90;;;;;;4972648;28;20578;-74
2022/11/25 02:17:03;;;;;;;29.17;26.00;;;3.60;99.90;;;;;;4972938;28;20891;-75
2022/11/25 02:19:42;;;;;;;28.33;25.73;;;3.70;99.90;;;;;;4972812;28;20536;-75
2022/11/25 02:22:20;;;;;;;27.23;24.73;;;3.80;99.90;;;;;;4972934;28;20589;-74
2022/11/25 02:24:51;;;;;;;26.60;24.00;;;3.80;99.90;;;;;;4972448;28;21105;-74
2022/11/25 02:27:19;;;;;;;27.10;24.60;;;3.80;99.90;;;;;;4972676;28;20486;-73
2022/11/25 06:01:11;;;;;;;22.70;21.20;;;3.20;99.90;;;;;;6115670;22;21070;31
2022/11/25 06:03:39;;;;;;;23.93;21.93;;;3.10;99.90;;;;;;4948848;28;20473;-75
2022/11/25 06:06:06;;;;;;;24.83;22.60;;;3.20;99.90;;;;;;4953266;29;20456;-74
2022/11/25 06:08:34;;;;;;;24.73;22.47;;;3.20;99.90;;;;;;4953985;29;20450;-74
2022/11/25 06:11:04;;;;;;;25.30;23.33;;;3.20;99.90;;;;;;4954102;29;20462;-74
2022/11/25 06:13:31;;;;;;;23.07;21.47;;;3.20;99.90;;;;;;4953823;29;20961;-74
2022/11/25 06:15:58;;;;;;;27.20;25.03;;;3.10;99.90;;;;;;4952680;29;20458;-74
2022/11/25 06:18:26;;;;;;;27.93;25.03;;;3.10;99.90;;;;;;4953126;29;20457;-74
2022/11/25 06:20:57;;;;;;;29.93;26.93;;;3.10;99.90;;;;;;4953398;28;20457;-74
2022/11/25 06:23:24;;;;;;;29.57;26.97;;;3.10;99.90;;;;;;4953854;29;21014;-74
2022/11/25 06:25:51;;;;;;;27.33;24.93;;;3.00;99.90;;;;;;4953072;29;20494;-74
2022/11/25 06:28:18;;;;;;;29.80;27.00;;;3.00;99.90;;;;;;4953164;29;20450;-74
2022/11/25 06:30:44;;;;;;;28.00;25.60;;;3.00;99.90;;;;;;4952456;28;20822;-75
2022/11/25 06:33:11;;;;;;;28.00;25.40;;;3.00;99.90;;;;;;4953161;29;20464;-75
2022/11/25 06:35:39;;;;;;;29.60;26.70;;;3.00;99.90;;;;;;4953044;29;20460;-75
2022/11/25 06:38:06;;;;;;;27.87;25.57;;;2.90;99.90;;;;;;4952947;29;20453;-75
2022/11/25 06:40:33;;;;;;;29.80;26.90;;;2.90;99.90;;;;;;4953323;29;20459;-75
2022/11/25 06:42:59;;;;;;;27.23;24.70;;;2.90;99.90;;;;;;4953459;29;21007;-75
2022/11/25 06:45:26;;;;;;;26.87;24.73;;;2.90;99.90;;;;;;4952828;29;20494;-75
2022/11/25 06:47:53;;;;;;;27.30;25.30;;;2.90;99.90;;;;;;4952705;29;20555;-75
2022/11/25 06:50:20;;;;;;;30.27;27.60;;;2.90;99.90;;;;;;4952982;29;20503;-74
2022/11/25 06:52:48;;;;;;;29.27;26.47;;;2.90;99.90;;;;;;4953140;29;20476;-74
2022/11/25 06:55:14;;;;;;;29.87;27.53;;;2.90;99.90;;;;;;4953228;29;20457;-75
2022/11/25 06:57:42;;;;;;;29.90;26.90;;;2.90;99.90;;;;;;4952832;29;20893;-74
2022/11/25 07:00:09;;;;;;;34.17;25.90;;;2.90;99.90;;;;;;4956487;28;20531;-75
2022/11/25 07:02:36;;;;;;;27.87;25.67;;;2.90;99.90;;;;;;4971380;28;20480;-75
2022/11/25 07:05:03;;;;;;;30.07;26.87;;;2.90;99.90;;;;;;4971899;28;20518;-73
2022/11/25 07:07:29;;;;;;;30.03;27.07;;;3.00;99.90;;;;;;4972316;28;20822;-74
2022/11/25 07:09:57;;;;;;;29.07;26.77;;;3.00;99.90;;;;;;4971901;28;20451;-75
2022/11/25 07:12:24;;;;;;;30.37;27.37;;;3.10;99.90;;;;;;4971702;28;20451;-75
2022/11/25 07:14:51;;;;;;;32.27;29.10;;;3.30;99.90;;;;;;4971681;28;20458;-76
2022/11/25 07:17:18;;;;;;;29.43;26.83;;;3.40;99.90;;;;;;4971811;28;20447;-76
2022/11/25 07:19:44;;;;;;;33.00;29.93;;;3.50;99.90;;;;;;4971985;28;20464;-77
2022/11/25 07:22:11;;;;;;;30.00;26.60;;;3.70;99.90;;;;;;4971626;28;20456;-76
2022/11/25 07:24:38;;;;;;;31.37;28.63;;;3.80;99.90;;;;;;4971439;28;20483;-74
2022/11/25 07:27:59;;;;;;;32.33;29.60;;;4.00;99.90;;;;;;4971020;28;20828;-82
2022/11/25 07:30:28;;;;;;;30.80;28.30;;;4.00;99.90;;;;;;4950818;28;20522;-83
2022/11/25 07:32:55;;;;;;;30.03;27.50;;;4.00;99.90;;;;;;4971840;28;20452;-81
2022/11/25 07:35:22;;;;;;;29.50;25.90;;;4.00;99.90;;;;;;4971718;28;20697;-89
2022/11/25 07:37:49;;;;;;;28.00;25.53;;;4.10;99.90;;;;;;4974304;28;20865;-81
2022/11/25 07:40:16;;;;;;;29.40;26.40;;;4.20;99.90;;;;;;4971463;28;20812;-80
2022/11/25 07:42:42;;;;;;;29.00;26.50;;;4.20;99.90;;;;;;4971346;28;20453;-79
2022/11/25 07:45:09;;;;;;;32.10;27.20;;;4.30;99.90;;;;;;4969382;28;20485;-78
2022/11/25 07:47:38;;;;;;;27.93;25.47;;;4.40;99.90;;;;;;4971138;28;20821;-78
2022/11/25 07:50:05;;;;;;;27.17;24.77;;;4.50;99.90;;;;;;4971137;28;20461;-77
2022/11/25 07:52:32;;;;;;;27.27;24.77;;;4.60;99.90;;;;;;4969315;28;20460;-78
2022/11/25 07:54:59;;;;;;;25.63;23.53;;;4.60;99.90;;;;;;4971281;28;20449;-78
2022/11/25 07:57:25;;;;;;;26.63;24.10;;;4.60;99.90;;;;;;4970940;28;20455;-78
2022/11/25 07:59:52;;;;;;;27.53;24.83;;;4.70;99.90;;;;;;4970800;28;20447;-78
2022/11/25 08:02:19;;;;;;;26.40;24.37;;;4.70;99.90;;;;;;4967389;28;20485;-78
2022/11/25 08:04:47;;;;;;;28.27;25.40;;;4.80;99.90;;;;;;4971284;28;20496;-78
2022/11/25 08:07:14;;;;;;;27.77;25.20;;;4.70;99.90;;;;;;4971343;28;20930;-78
2022/11/25 08:09:40;;;;;;;24.77;22.83;;;4.70;99.90;;;;;;4970746;28;20451;-78
2022/11/25 08:12:07;;;;;;;23.90;21.90;;;4.80;99.90;;;;;;4970768;28;20482;-77
2022/11/25 08:14:34;;;;;;;26.67;24.43;;;4.80;99.90;;;;;;4968673;28;20456;-78
2022/11/25 08:17:03;;;;;;;25.07;22.33;;;4.80;99.90;;;;;;4971150;28;20454;-79
2022/11/25 08:19:31;;;;;;;26.27;23.87;;;4.90;99.90;;;;;;4971086;28;20526;-78
2022/11/25 08:21:59;;;;;;;26.40;23.63;;;4.90;99.90;;;;;;4968466;28;20978;-79
2022/11/25 08:24:25;;;;;;;26.27;23.90;;;4.90;99.90;;;;;;4970200;28;20489;-78
2022/11/25 08:26:53;;;;;;;26.23;23.97;;;5.00;99.90;;;;;;4970555;28;20449;-81
2022/11/25 08:29:20;;;;;;;27.30;25.10;;;5.00;99.90;;;;;;4975048;28;20549;-86
2022/11/25 08:31:47;;;;;;;27.50;25.60;;;4.90;99.90;;;;;;4972877;28;20462;-87
2022/11/25 08:34:19;;;;;;;27.90;25.87;;;4.90;99.90;;;;;;4972705;28;20455;-83
2022/11/25 08:36:46;;;;;;;28.87;26.57;;;4.90;99.90;;;;;;4970914;28;20455;-83
2022/11/25 08:39:14;;;;;;;28.00;26.00;;;5.00;99.90;;;;;;4970874;28;20454;-83
2022/11/25 08:41:41;;;;;;;30.67;27.67;;;5.00;99.90;;;;;;4970600;28;20455;-84
2022/11/25 08:44:09;;;;;;;26.93;25.10;;;5.10;99.90;;;;;;4970326;28;21003;-85
2022/11/25 08:46:38;;;;;;;25.07;23.33;;;5.10;99.90;;;;;;4970411;28;20447;-83
2022/11/25 08:49:07;;;;;;;27.47;25.17;;;5.00;99.90;;;;;;4970541;28;20456;-81
2022/11/25 08:51:36;;;;;;;26.00;23.80;;;4.90;99.90;;;;;;4970512;28;20458;-81
2022/11/25 08:54:04;;;;;;;26.57;24.47;;;5.00;99.90;;;;;;4972493;28;20460;-79
2022/11/25 08:56:32;;;;;;;26.07;23.87;;;5.10;99.90;;;;;;4974533;28;20481;-80
2022/11/25 08:58:59;;;;;;;26.00;23.70;;;5.20;99.90;;;;;;4974723;28;20457;-79
2022/11/25 09:01:28;;;;;;;27.93;24.97;;;5.30;99.90;;;;;;4973987;28;20526;-79
2022/11/25 09:03:57;;;;;;;25.43;23.13;;;5.30;99.90;;;;;;4974116;28;20462;-79
2022/11/25 09:06:26;;;;;;;28.00;25.70;;;5.40;99.90;;;;;;4974050;28;21028;-78
2022/11/25 09:08:56;;;;;;;27.93;25.60;;;5.30;99.90;;;;;;4972695;28;20462;-77
2022/11/25 09:11:23;;;;;;;26.60;24.00;;;5.20;99.90;;;;;;4974054;28;20520;-78
2022/11/25 09:13:51;;;;;;;27.30;24.97;;;5.20;99.90;;;;;;4973648;28;20450;-80
2022/11/25 09:16:19;;;;;;;27.63;25.13;;;5.30;99.90;;;;;;4973709;28;20915;-77
2022/11/25 09:18:46;;;;;;;26.43;24.03;;;5.80;99.90;;;;;;4973310;28;20452;-78
2022/11/25 09:21:16;;;;;;;26.07;23.47;;;6.30;99.90;;;;;;4974046;28;20447;-79
2022/11/25 09:23:43;;;;;;;22.63;20.60;;;7.10;99.90;;;;;;4973786;28;20451;-78
2022/11/25 09:26:21;;;;;;;25.07;22.57;;;7.70;99.90;;;;;;4973435;28;20483;-78
2022/11/25 09:28:48;;;;;;;23.23;21.33;;;8.00;99.90;;;;;;4973921;28;20439;-78
2022/11/25 09:31:16;;;;;;;24.50;21.87;;;8.20;99.90;;;;;;4973453;28;20447;-78
2022/11/25 09:33:43;;;;;;;23.90;21.90;;;8.90;99.90;;;;;;4971840;28;20462;-77
2022/11/25 09:36:11;;;;;;;24.43;22.23;;;9.60;99.90;;;;;;4973276;28;20515;-78
2022/11/25 09:38:38;;;;;;;22.77;21.07;;;9.80;99.90;;;;;;4973467;28;20447;-78
2022/11/25 09:41:08;;;;;;;22.40;20.60;;;9.50;99.90;;;;;;4973162;28;20470;-78
2022/11/25 09:46:51;;;;;;;26.97;22.93;;;8.60;99.90;;;;;;4968524;28;20498;-77
2022/11/25 09:49:31;;;;;;;24.60;22.07;;;8.20;99.90;;;;;;4965488;28;20451;-76
2022/11/25 09:52:09;;;;;;;22.73;20.30;;;8.00;99.90;;;;;;4971804;28;20523;-77
2022/11/25 09:54:39;;;;;;;22.67;20.37;;;7.90;99.90;;;;;;4973314;28;20458;-78
2022/11/25 09:57:20;;;;;;;22.77;20.23;;;7.80;99.90;;;;;;4973031;28;20462;-77
2022/11/25 09:59:54;;;;;;;28.13;21.50;;;7.70;99.90;;;;;;4973252;28;20455;-77
2022/11/25 10:02:27;;;;;;;36.57;22.90;;;7.70;99.90;;;;;;4972632;28;20479;-76
2022/11/25 10:05:01;;;;;;;21.97;19.77;;;7.70;99.90;;;;;;4971870;28;20479;-77
2022/11/25 10:07:36;;;;;;;21.43;19.70;;;7.70;99.90;;;;;;4973267;28;20440;-77
2022/11/25 10:10:06;;;;;;;22.10;20.17;;;7.70;99.90;;;;;;4976686;28;20466;-77
2022/11/25 10:12:38;;;;;;;22.10;20.00;;;7.80;99.90;;;;;;4988280;28;20445;-78
2022/11/25 10:15:12;;;;;;;21.97;20.17;;;7.80;99.90;;;;;;4974072;28;20474;-77
2022/11/25 10:17:45;;;;;;;21.13;19.53;;;7.90;99.90;;;;;;4977341;28;20443;-79
2022/11/25 10:20:19;;;;;;;21.43;19.43;;;8.00;99.90;;;;;;4992355;28;20458;-79
2022/11/25 10:22:48;;;;;;;22.60;20.83;;;8.00;99.90;;;;;;4992833;28;20446;-79
2022/11/25 10:25:17;;;;;;;24.53;22.33;;;8.10;99.90;;;;;;4992812;28;21019;-79
2022/11/25 10:27:48;;;;;;;21.23;19.77;;;8.10;99.90;;;;;;4975836;28;20493;-79
2022/11/25 10:30:18;;;;;;;22.87;20.37;;;8.20;99.90;;;;;;4973125;28;20451;-79
2022/11/25 10:32:51;;;;;;;21.83;20.03;;;8.10;99.90;;;;;;4973201;28;20456;-79
2022/11/25 10:35:27;;;;;;;19.77;18.40;;;8.20;99.90;;;;;;4973029;28;20448;-79
2022/11/25 10:37:55;;;;;;;20.10;18.70;;;8.20;99.90;;;;;;4972526;28;20458;-79
2022/11/25 10:40:22;;;;;;;18.83;17.33;;;8.40;99.90;;;;;;4968321;28;20833;-78
2022/11/25 10:42:49;;;;;;;19.93;18.23;;;8.50;99.90;;;;;;4970781;28;20518;-76
2022/11/25 10:45:16;;;;;;;17.70;16.50;;;8.70;99.90;;;;;;4972517;28;20483;-75
2022/11/25 10:48:06;;;;;;;19.43;18.13;;;8.90;99.90;;;;;;4970849;28;20769;-78
2022/11/25 10:50:41;;;;;;;18.00;16.80;;;9.00;99.90;;;;;;4971188;28;20455;-76
2022/11/25 10:53:14;;;;;;;20.20;17.97;;;9.20;99.90;;;;;;4972386;28;20451;-76
2022/11/25 10:55:57;;;;;;;19.97;18.33;;;9.30;99.90;;;;;;4970822;28;20463;-79
2022/11/25 10:58:28;;;;;;;23.50;21.50;;;9.40;99.90;;;;;;4971260;28;21267;-77
2022/11/25 11:01:04;;;;;;;19.33;17.93;;;9.50;99.90;;;;;;4973183;28;20993;-76
2022/11/25 11:03:32;;;;;;;18.60;17.37;;;9.40;99.90;;;;;;4972420;28;20989;-77
2022/11/25 11:05:59;;;;;;;18.43;17.30;;;9.40;99.90;;;;;;4972738;28;20494;-77
2022/11/25 11:08:27;;;;;;;18.10;17.00;;;9.50;99.90;;;;;;4972561;28;20467;-76
2022/11/25 11:11:16;;;;;;;19.80;18.30;;;9.50;99.90;;;;;;4972126;28;20452;-76
2022/11/25 11:13:43;;;;;;;18.63;16.97;;;9.50;99.90;;;;;;4971953;28;20448;-76
2022/11/25 11:16:26;;;;;;;20.23;18.20;;;9.40;99.90;;;;;;4970699;28;20762;-76
2022/11/25 11:18:55;;;;;;;19.50;18.10;;;9.50;99.90;;;;;;4971489;28;20447;-77
2022/11/25 11:21:30;;;;;;;18.67;17.13;;;9.50;99.90;;;;;;4971344;28;20475;-77
2022/11/25 11:23:58;;;;;;;18.00;16.70;;;9.50;99.90;;;;;;4971369;28;20451;-77
2022/11/25 11:26:27;;;;;;;18.23;17.03;;;9.50;99.90;;;;;;4971685;28;21064;-77
2022/11/25 11:29:00;;;;;;;18.73;17.50;;;9.50;99.90;;;;;;4972390;28;20474;-77
2022/11/25 11:31:30;;;;;;;19.57;16.93;;;9.50;99.90;;;;;;4970781;28;20452;-77
2022/11/25 11:34:07;;;;;;;19.23;17.53;;;9.50;99.90;;;;;;4971424;28;20463;-75
2022/11/25 11:36:51;;;;;;;20.53;19.03;;;9.60;99.90;;;;;;4972205;28;20460;-77
2022/11/25 11:39:35;;;;;;;20.87;19.33;;;9.70;99.90;;;;;;4971970;28;20478;-77
2022/11/25 11:42:10;;;;;;;22.97;20.63;;;9.90;99.90;;;;;;4971867;28;20482;-78
2022/11/25 11:44:47;;;;;;;23.10;21.17;;;10.00;99.90;;;;;;4971996;28;20478;-78
2022/11/25 11:47:23;;;;;;;23.70;21.67;;;10.10;99.90;;;;;;4972351;28;20488;-78
2022/11/25 11:50:04;;;;;;;22.70;20.80;;;10.30;99.90;;;;;;4972812;28;20454;-80
2022/11/25 11:52:43;;;;;;;29.70;22.17;;;10.40;99.90;;;;;;4972651;28;20454;-78
2022/11/25 11:55:23;;;;;;;22.10;19.83;;;10.50;99.90;;;;;;4971778;28;20453;-78
2022/11/25 11:58:00;;;;;;;22.77;20.20;;;10.60;99.90;;;;;;4971949;28;20447;-77
2022/11/25 12:00:32;;;;;;;22.50;20.47;;;10.70;99.90;;;;;;4971754;28;20471;-76
2022/11/25 12:03:04;;;;;;;22.30;20.10;;;10.80;99.90;;;;;;4971398;28;20494;-76
2022/11/25 12:05:35;;;;;;;21.53;19.87;;;11.10;99.90;;;;;;4971566;28;20569;-76
2022/11/25 12:08:09;;;;;;;21.10;19.60;;;11.10;99.90;;;;;;4971287;28;20459;-76
2022/11/25 12:10:40;;;;;;;21.17;19.20;;;11.00;99.90;;;;;;4971654;28;20448;-78
2022/11/25 12:13:16;;;;;;;21.60;19.80;;;10.90;99.90;;;;;;4972016;28;20458;-79
2022/11/25 12:15:49;;;;;;;23.27;21.37;;;11.00;99.90;;;;;;4971949;28;20442;-79
2022/11/25 12:18:32;;;;;;;22.37;20.60;;;11.00;99.90;;;;;;4972042;28;20527;-81
2022/11/25 12:21:04;;;;;;;20.63;18.83;;;11.00;99.90;;;;;;4972142;28;20456;-81
2022/11/25 12:23:42;;;;;;;20.50;19.00;;;10.90;99.90;;;;;;4971939;28;20546;-79
2022/11/25 12:26:14;;;;;;;20.60;18.90;;;10.90;99.90;;;;;;4971607;28;20495;-80
2022/11/25 12:28:45;;;;;;;21.97;20.40;;;10.90;99.90;;;;;;4970927;28;20459;-78
2022/11/25 12:31:18;;;;;;;23.60;21.90;;;10.70;99.90;;;;;;4971503;28;20456;-78
2022/11/25 12:33:55;;;;;;;22.20;20.57;;;10.40;99.90;;;;;;4969716;28;20870;-78
2022/11/25 12:36:32;;;;;;;23.80;21.90;;;10.30;99.90;;;;;;4967588;28;20460;-78
2022/11/25 12:39:02;;;;;;;24.07;22.07;;;10.20;99.90;;;;;;4969716;28;20443;-77
2022/11/25 12:41:37;;;;;;;23.47;21.20;;;10.40;99.90;;;;;;4969556;28;20451;-87
2022/11/25 12:44:08;;;;;;;28.03;21.23;;;10.70;99.90;;;;;;4948112;29;20955;-76
2022/11/25 12:46:38;;;;;;;22.10;20.20;;;10.90;99.90;;;;;;4951207;29;20488;-76
2022/11/25 12:49:07;;;;;;;23.00;20.77;;;11.10;99.90;;;;;;4951663;29;20459;-76
2022/11/25 12:52:15;;;;;;;24.13;20.70;;;11.20;99.90;;;;;;4951460;29;20451;-75
2022/11/25 12:55:04;;;;;;;22.60;20.63;;;11.20;99.90;;;;;;4892222;29;20799;-76
2022/11/25 12:58:25;;;;;;;20.97;19.37;;;11.30;99.90;;;;;;4946891;28;20457;-75
2022/11/25 13:01:25;;;;;;;20.20;18.47;;;11.40;99.90;;;;;;4951164;29;20484;-75
2022/11/25 13:04:16;;;;;;;19.30;17.83;;;11.10;99.90;;;;;;4949391;29;20487;-78
2022/11/25 13:07:08;;;;;;;18.10;16.70;;;11.00;99.90;;;;;;4952490;29;20484;-78
2022/11/25 13:10:08;;;;;;;19.97;18.20;;;10.90;99.90;;;;;;4951921;29;20453;-77
2022/11/25 13:12:50;;;;;;;17.17;16.03;;;10.70;99.90;;;;;;4951339;28;20452;-77
2022/11/25 13:15:27;;;;;;;18.53;17.27;;;10.50;99.90;;;;;;4951657;29;20463;-76
2022/11/25 13:17:58;;;;;;;18.33;17.13;;;10.40;99.90;;;;;;4951516;28;20440;-79
2022/11/25 13:20:42;;;;;;;20.10;18.70;;;10.20;99.90;;;;;;4951686;29;20464;-78
2022/11/25 13:23:28;;;;;;;17.90;16.67;;;10.10;99.90;;;;;;4951351;29;20467;-77
2022/11/25 13:26:31;;;;;;;18.73;17.60;;;10.10;99.90;;;;;;4951228;29;20491;-78
2022/11/25 13:28:59;;;;;;;17.70;16.80;;;10.20;99.90;;;;;;4951643;29;20455;-79
2022/11/25 13:31:31;;;;;;;18.27;17.03;;;10.20;99.90;;;;;;4951926;29;20492;-79
2022/11/25 13:34:20;;;;;;;18.97;18.00;;;10.20;99.90;;;;;;4951662;29;20968;-77
2022/11/25 13:36:49;;;;;;;18.30;17.03;;;10.20;99.90;;;;;;4952049;29;20790;-79
2022/11/25 13:39:19;;;;;;;17.43;16.20;;;10.20;99.90;;;;;;4952127;28;20452;-77
2022/11/25 13:41:48;;;;;;;19.83;18.20;;;10.30;99.90;;;;;;4955007;29;20780;-76
2022/11/25 13:44:29;;;;;;;19.37;17.90;;;10.40;99.90;;;;;;4955009;29;20476;-78
2022/11/25 13:46:58;;;;;;;18.23;17.23;;;10.40;99.90;;;;;;4954686;29;20488;-78
2022/11/25 13:49:32;;;;;;;18.87;17.57;;;10.70;99.90;;;;;;4954623;29;20456;-77
2022/11/25 13:52:02;;;;;;;18.50;17.20;;;10.80;99.90;;;;;;4954662;29;20448;-75
2022/11/25 13:54:36;;;;;;;17.43;16.57;;;10.90;99.90;;;;;;4954612;29;20444;-75
2022/11/25 13:57:24;;;;;;;18.20;17.00;;;11.10;99.90;;;;;;4954111;29;20460;-75
2022/11/25 13:59:56;;;;;;;17.07;15.43;;;11.40;99.90;;;;;;4953765;29;20484;-75
2022/11/25 14:02:36;;;;;;;19.93;18.50;;;11.60;99.90;;;;;;4953692;29;20933;-75
2022/11/25 14:05:14;;;;;;;16.80;15.80;;;11.80;99.90;;;;;;4953928;29;20456;-75
2022/11/25 14:07:49;;;;;;;17.17;16.17;;;11.90;99.90;;;;;;4953730;29;20518;-75
2022/11/25 14:10:38;;;;;;;19.50;17.37;;;11.90;99.90;;;;;;4954358;29;20452;-76
2022/11/25 14:13:33;;;;;;;18.60;17.17;;;11.70;99.90;;;;;;4954018;29;20463;-78
2022/11/25 14:16:15;;;;;;;17.43;16.30;;;11.50;99.90;;;;;;4954782;29;20479;-78
2022/11/25 14:18:56;;;;;;;17.90;16.90;;;11.40;99.90;;;;;;4954607;29;20453;-77
2022/11/25 14:21:52;;;;;;;19.33;17.50;;;11.30;99.90;;;;;;4954044;29;20800;-77
2022/11/25 14:24:30;;;;;;;16.87;15.90;;;11.30;99.90;;;;;;4941423;29;20943;-75
2022/11/25 14:26:59;;;;;;;18.10;16.77;;;11.20;99.90;;;;;;4953673;29;20484;-76
2022/11/25 14:29:35;;;;;;;17.33;16.07;;;11.30;99.90;;;;;;4953582;29;20460;-76
2022/11/25 14:32:07;;;;;;;17.70;16.40;;;11.50;99.90;;;;;;4953848;29;20452;-76
2022/11/25 14:34:38;;;;;;;16.80;15.07;;;11.60;99.90;;;;;;4953601;29;20456;-76
2022/11/25 14:37:13;;;;;;;16.13;15.17;;;11.70;99.90;;;;;;4953823;29;20452;-78
2022/11/25 14:39:45;;;;;;;16.97;16.00;;;11.50;99.90;;;;;;4954288;29;20451;-77
2022/11/25 14:42:17;;;;;;;16.10;14.80;;;11.30;99.90;;;;;;4953677;29;20986;-78
2022/11/25 14:44:47;;;;;;;16.60;15.40;;;11.40;99.90;;;;;;4953774;29;20459;-78
2022/11/25 14:47:14;;;;;;;15.23;14.23;;;11.30;99.90;;;;;;4954067;29;20488;-78
2022/11/25 14:49:46;;;;;;;15.10;14.00;;;11.30;99.90;;;;;;4954000;29;20444;-79
2022/11/25 14:52:19;;;;;;;14.63;13.80;;;11.30;99.90;;;;;;4953345;28;20820;-77
2022/11/25 14:54:46;;;;;;;15.83;14.30;;;11.30;99.90;;;;;;4953803;28;20456;-78
2022/11/25 14:57:18;;;;;;;15.23;14.23;;;11.20;99.90;;;;;;4953947;29;20440;-77
2022/11/25 14:59:45;;;;;;;15.33;14.27;;;11.20;99.90;;;;;;4953731;29;20792;-77
2022/11/25 15:02:24;;;;;;;13.90;12.90;;;11.20;99.90;;;;;;4953589;29;20490;-76
2022/11/25 15:04:51;;;;;;;15.07;13.00;;;11.10;99.90;;;;;;4953441;29;20858;-77
2022/11/25 15:07:21;;;;;;;13.30;12.60;;;11.10;99.90;;;;;;4953555;29;20575;-78
2022/11/25 15:09:49;;;;;;;14.20;13.20;;;11.20;99.90;;;;;;4953622;29;20476;-77
2022/11/25 15:12:20;;;;;;;13.70;12.50;;;11.10;99.90;;;;;;4953605;29;20449;-78
2022/11/25 15:14:51;;;;;;;13.73;12.37;;;11.20;99.90;;;;;;4953282;29;20467;-76
2022/11/25 15:17:25;;;;;;;13.33;12.50;;;11.20;99.90;;;;;;4953280;29;20448;-77
2022/11/25 15:19:53;;;;;;;14.10;12.90;;;11.20;99.90;;;;;;4952744;29;20969;-77
2022/11/25 15:22:21;;;;;;;13.40;12.60;;;11.20;99.90;;;;;;4952951;29;20452;-77
2022/11/25 15:24:49;;;;;;;14.27;13.47;;;11.20;99.90;;;;;;4952799;29;20543;-76
2022/11/25 15:27:23;;;;;;;14.07;13.07;;;11.20;99.90;;;;;;4953293;28;20484;-77
2022/11/25 15:29:51;;;;;;;13.77;12.80;;;11.20;99.90;;;;;;4952667;28;21014;-77
2022/11/25 15:32:24;;;;;;;13.43;12.63;;;11.20;99.90;;;;;;4952678;29;20444;-77
2022/11/25 15:34:52;;;;;;;13.70;12.80;;;11.10;99.90;;;;;;4952538;29;20448;-77
2022/11/25 15:37:19;;;;;;;14.23;13.20;;;11.10;99.90;;;;;;4952877;29;20457;-78
2022/11/25 15:39:46;;;;;;;14.50;13.17;;;11.10;99.90;;;;;;4952796;29;20980;-77
2022/11/25 15:42:19;;;;;;;14.63;13.10;;;11.10;99.90;;;;;;4952702;29;20457;-78
2022/11/25 15:44:50;;;;;;;14.83;13.40;;;11.10;99.90;;;;;;4952657;29;20452;-79
2022/11/25 15:47:22;;;;;;;13.57;12.57;;;11.00;99.90;;;;;;4952524;29;20492;-77
2022/11/25 15:49:54;;;;;;;13.30;12.37;;;10.90;99.90;;;;;;4952374;29;20516;-78
2022/11/25 15:52:24;;;;;;;14.43;13.27;;;10.80;99.90;;;;;;4952351;29;20471;-78
2022/11/25 15:54:52;;;;;;;13.70;12.40;;;10.80;99.90;;;;;;4954580;29;20946;-77
2022/11/25 15:57:24;;;;;;;14.13;13.23;;;10.90;99.90;;;;;;4952449;29;20470;-78
2022/11/25 16:00:10;;;;;;;13.27;12.17;;;10.70;99.90;;;;;;4951954;29;20455;-78
2022/11/25 16:02:39;;;;;;;14.20;12.93;;;10.80;99.90;;;;;;4951168;28;20491;-78
2022/11/25 16:05:23;;;;;;;14.03;12.57;;;10.60;99.90;;;;;;4951865;29;20479;-79
2022/11/25 16:08:22;;;;;;;14.43;13.50;;;10.50;99.90;;;;;;4951881;29;20480;-76
2022/11/25 16:10:51;;;;;;;14.90;13.80;;;10.40;99.90;;;;;;4951997;29;20456;-78
2022/11/25 16:13:32;;;;;;;14.53;13.47;;;10.30;99.90;;;;;;4952159;29;20453;-78
2022/11/25 16:16:18;;;;;;;15.13;13.63;;;10.20;99.90;;;;;;4952355;29;20487;-78
2022/11/25 16:18:54;;;;;;;14.50;13.60;;;10.10;99.90;;;;;;4952716;29;20453;-77
2022/11/25 16:21:23;;;;;;;14.63;13.33;;;10.20;99.90;;;;;;4952368;29;20452;-77
2022/11/25 16:23:53;;;;;;;14.20;12.90;;;10.20;99.90;;;;;;4951523;29;20455;-76
2022/11/25 16:26:24;;;;;;;14.90;13.50;;;10.10;99.90;;;;;;4951862;29;20452;-78
2022/11/25 16:28:54;;;;;;;15.97;14.63;;;10.20;99.90;;;;;;4951987;29;20441;-78
2022/11/25 16:31:22;;;;;;;16.93;15.37;;;10.20;99.90;;;;;;4952230;29;20440;-77
2022/11/25 16:33:49;;;;;;;14.73;13.40;;;10.20;99.90;;;;;;4952058;29;20456;-77
2022/11/25 16:36:16;;;;;;;15.13;14.10;;;10.10;99.90;;;;;;4952026;29;20449;-79
2022/11/25 16:38:43;;;;;;;15.33;14.03;;;10.10;99.90;;;;;;4952344;29;20436;-77
2022/11/25 16:41:19;;;;;;;14.73;13.40;;;10.00;99.90;;;;;;4952112;29;20448;-77
2022/11/25 16:43:46;;;;;;;16.00;14.63;;;10.00;99.90;;;;;;4951970;29;20448;-76
2022/11/25 16:46:16;;;;;;;15.97;14.67;;;10.10;99.90;;;;;;4951575;29;20445;-77